.
WxDataArchive / Data Records for 2011-08-28
2011-08-27 August 2011 2011-08-29

Data Records for Sunday, 28 August 2011

Time	Temp	Chill	HIndex	Humid	Dewpt	 Wind 	HiWind	WindDir	Rain 	Barom 
-----	----	-----	------	-----	-----	------	------	-------	-----	----- 
00:00	68.4	68.4	68.4	74	59.8	0	0	---	0.00	29.824 
00:05	68.3	68.3	68.3	74	59.7	0	0	---	0.00	29.824 
00:10	68.1	68.1	68.1	74	59.5	0	0	---	0.00	29.824 
00:15	67.9	67.9	67.9	74	59.3	0	0	---	0.00	29.822 
00:20	67.8	67.8	67.8	75	59.6	0	0	---	0.00	29.822 
00:25	67.6	67.6	67.6	75	59.4	0	0	---	0.00	29.822 
00:30	67.4	67.4	67.4	76	59.6	0	0	---	0.00	29.823 
00:35	67.1	67.1	67.1	76	59.3	0	0	---	0.00	29.823 
00:40	66.9	66.9	66.9	77	59.4	0	0	---	0.00	29.823 
00:45	66.9	66.9	66.9	77	59.4	0	0	---	0.00	29.824 
00:50	66.8	66.8	66.8	77	59.3	0	0	---	0.00	29.824 
00:55	66.8	66.8	66.8	77	59.3	0	0	---	0.00	29.824 
01:00	66.8	66.8	66.8	77	59.3	0	1	158	0.00	29.823 
01:05	66.8	66.8	66.8	77	59.3	0	0	---	0.00	29.823 
01:10	66.6	66.6	66.6	77	59.2	0	0	---	0.00	29.823 
01:15	66.6	66.6	66.6	77	59.2	0	0	---	0.00	29.825 
01:20	66.4	66.4	66.4	77	59.0	0	0	---	0.00	29.825 
01:25	66.4	66.4	66.4	77	59.0	0	0	---	0.00	29.825 
01:30	66.1	66.1	66.1	78	59.0	0	0	---	0.00	29.824 
01:35	66.1	66.1	66.1	78	59.0	0	1	158	0.00	29.824 
01:40	66.0	66.0	66.0	79	59.3	0	1	158	0.00	29.824 
01:45	65.8	65.8	65.8	79	59.1	0	0	---	0.00	29.823 
01:50	65.6	65.6	65.6	79	58.9	0	1	158	0.00	29.823 
01:55	65.5	65.5	65.5	79	58.8	0	1	158	0.00	29.823 
02:00	65.5	65.5	65.5	80	59.2	0	2	158	0.00	29.826 
02:05	65.3	65.3	65.3	80	59.0	0	0	---	0.00	29.826 
02:10	65.2	65.2	65.2	80	58.9	0	0	---	0.00	29.826 
02:15	65.0	65.0	65.0	80	58.7	0	2	158	0.00	29.825 
02:20	65.0	65.0	65.0	80	58.7	0	1	158	0.00	29.825 
02:25	64.8	64.8	64.8	81	58.8	0	1	158	0.00	29.825 
02:30	64.7	64.7	64.7	81	58.7	0	1	158	0.00	29.827 
02:35	64.7	64.7	64.7	81	58.7	0	1	158	0.00	29.827 
02:40	64.7	64.7	64.7	81	58.7	0	1	158	0.00	29.827 
02:45	64.5	64.5	64.5	81	58.5	0	0	---	0.00	29.825 
02:50	64.5	64.5	64.5	81	58.5	0	0	---	0.00	29.825 
02:55	64.3	64.3	64.3	81	58.3	0	1	158	0.00	29.825 
03:00	64.3	64.3	64.3	81	58.3	0	0	---	0.00	29.824 
03:05	64.2	64.2	64.2	82	58.6	0	1	158	0.00	29.824 
03:10	64.2	64.2	64.2	82	58.6	0	1	158	0.00	29.824 
03:15	64.0	64.0	64.0	82	58.4	0	0	---	0.00	29.823 
03:20	63.9	63.9	63.9	82	58.3	0	0	---	0.00	29.823 
03:25	63.7	63.7	63.7	82	58.1	0	1	158	0.00	29.823 
03:30	63.7	63.7	63.7	83	58.4	0	0	---	0.00	29.821 
03:35	63.5	63.5	63.5	83	58.2	0	1	158	0.00	29.821 
03:40	63.4	63.4	63.4	83	58.1	0	0	---	0.00	29.821 
03:45	63.4	63.4	63.4	83	58.1	0	0	---	0.00	29.824 
03:50	63.2	63.2	63.2	83	57.9	0	1	158	0.00	29.824 
03:55	63.2	63.2	63.2	83	57.9	0	1	158	0.00	29.824 
04:00	63.1	63.1	63.1	83	57.8	0	1	158	0.00	29.824 
04:05	63.1	63.1	63.1	83	57.8	0	1	158	0.00	29.824 
04:10	62.9	62.9	62.9	83	57.7	0	0	---	0.00	29.824 
04:15	62.9	62.9	62.9	83	57.7	0	0	---	0.00	29.820 
04:20	62.7	62.7	62.7	83	57.5	0	0	---	0.00	29.820 
04:25	62.7	62.7	62.7	83	57.5	0	0	---	0.00	29.820 
04:30	62.6	62.6	62.6	83	57.4	0	2	158	0.00	29.821 
04:35	62.6	62.6	62.6	84	57.7	0	0	---	0.00	29.821 
04:40	62.4	62.4	62.4	84	57.5	0	1	158	0.00	29.821 
04:45	62.3	62.3	62.3	84	57.4	0	0	---	0.00	29.819 
04:50	62.1	62.1	62.1	84	57.2	0	0	---	0.00	29.819 
04:55	62.0	62.0	62.0	84	57.1	0	0	---	0.00	29.819 
05:00	62.0	62.0	62.0	84	57.1	0	1	158	0.00	29.818 
05:05	61.8	61.8	61.8	84	56.9	0	1	158	0.00	29.818 
05:10	61.6	61.6	61.6	84	56.7	0	1	158	0.00	29.818 
05:15	61.6	61.6	61.6	84	56.7	0	0	---	0.00	29.819 
05:20	61.5	61.5	61.5	84	56.6	0	2	158	0.00	29.819 
05:25	61.5	61.5	61.5	84	56.6	0	0	---	0.00	29.819 
05:30	61.3	61.3	61.3	84	56.4	0	0	---	0.00	29.825 
05:35	61.3	61.3	61.3	84	56.4	0	0	---	0.00	29.825 
05:40	61.3	61.3	61.3	84	56.4	0	0	---	0.00	29.825 
05:45	61.3	61.3	61.3	84	56.4	0	0	---	0.00	29.823 
05:50	61.2	61.2	61.2	84	56.3	0	1	158	0.00	29.823 
05:55	61.2	61.2	61.2	84	56.3	0	0	---	0.00	29.823 
06:00	61.0	61.0	61.0	84	56.1	0	0	---	0.00	29.822 
06:05	60.9	60.9	60.9	84	56.0	0	1	158	0.00	29.822 
06:10	60.9	60.9	60.9	84	56.0	0	1	158	0.00	29.822 
06:15	60.7	60.7	60.7	84	55.8	0	1	158	0.00	29.818 
06:20	60.5	60.5	60.5	84	55.6	0	2	158	0.00	29.818 
06:25	60.4	60.4	60.4	84	55.5	0	1	158	0.00	29.818 
06:30	60.4	60.4	60.4	84	55.5	0	1	158	0.00	29.823 
06:35	60.2	60.2	60.2	84	55.3	0	1	158	0.00	29.823 
06:40	60.1	60.1	60.1	84	55.2	0	2	158	0.00	29.823 
06:45	60.1	60.1	60.1	84	55.2	0	1	158	0.00	29.828 
06:50	60.1	60.1	60.1	84	55.2	0	1	158	0.00	29.828 
06:55	59.9	59.9	59.9	84	55.0	0	1	158	0.00	29.828 
07:00	59.8	59.8	59.8	84	55.0	0	1	158	0.00	29.828 
07:05	59.8	59.8	59.8	84	55.0	0	1	158	0.00	29.828 
07:10	59.6	59.6	59.6	84	54.8	0	1	158	0.00	29.828 
07:15	59.5	59.5	59.5	84	54.7	0	1	158	0.00	29.832 
07:20	59.3	59.3	59.3	85	54.8	0	0	---	0.00	29.832 
07:25	59.3	59.3	59.3	85	54.8	0	1	158	0.00	29.832 
07:30	59.3	59.3	59.3	86	55.1	0	1	158	0.00	29.833 
07:35	59.2	59.2	59.2	86	55.0	0	1	158	0.00	29.833 
07:40	59.2	59.2	59.2	86	55.0	0	2	158	0.00	29.833 
07:45	59.3	59.3	59.3	86	55.1	0	1	158	0.00	29.837 
07:50	59.5	59.5	59.5	86	55.3	0	1	158	0.00	29.837 
07:55	59.6	59.6	59.6	85	55.1	1	3	270	0.00	29.837 
08:00	59.9	59.9	59.9	85	55.4	0	1	270	0.00	29.837 
08:05	60.2	60.2	60.2	84	55.3	1	4	270	0.00	29.837 
08:10	60.4	60.4	60.4	83	55.2	0	3	270	0.00	29.837 
08:15	60.7	60.7	60.7	81	54.8	0	3	292	0.00	29.840 
08:20	61.0	61.0	61.0	80	54.8	1	2	292	0.00	29.840 
08:25	61.5	61.5	61.5	80	55.3	0	1	292	0.00	29.840 
08:30	61.8	61.8	61.8	78	54.9	0	3	292	0.00	29.841 
08:35	62.1	62.1	62.1	77	54.8	0	3	292	0.00	29.841 
08:40	62.4	62.4	62.4	77	55.1	0	3	292	0.00	29.841 
08:45	62.6	62.6	62.6	75	54.6	1	2	292	0.00	29.837 
08:50	62.6	62.6	62.6	75	54.6	0	1	292	0.00	29.837 
08:55	62.7	62.7	62.7	75	54.7	1	3	292	0.00	29.837 
09:00	62.7	62.7	62.7	75	54.7	0	1	292	0.00	29.835 
09:05	63.1	63.1	63.1	74	54.7	1	3	292	0.00	29.835 
09:10	63.2	63.2	63.2	73	54.4	0	3	292	0.00	29.835 
09:15	63.2	63.2	63.2	73	54.4	0	3	292	0.00	29.838 
09:20	63.5	63.5	63.5	73	54.7	0	2	292	0.00	29.838 
09:25	64.2	64.2	64.2	72	55.0	0	2	292	0.00	29.838 
09:30	64.7	64.7	64.7	69	54.3	1	4	292	0.00	29.836 
09:35	65.0	65.0	65.0	68	54.2	1	4	292	0.00	29.836 
09:40	65.5	65.5	65.5	67	54.2	0	2	292	0.00	29.836 
09:45	66.0	66.0	66.0	67	54.7	0	1	292	0.00	29.834 
09:50	66.4	66.4	66.4	62	53.0	1	3	292	0.00	29.834 
09:55	66.9	66.9	66.9	62	53.4	1	7	292	0.00	29.834 
10:00	67.3	67.3	67.3	61	53.4	1	4	315	0.00	29.835 
10:05	67.6	67.6	67.6	59	52.8	2	5	292	0.00	29.835 
10:10	67.8	67.8	67.8	58	52.5	1	4	292	0.00	29.835 
10:15	68.1	68.1	68.1	60	53.7	1	2	292	0.00	29.838 
10:20	68.6	68.6	68.6	57	52.7	2	5	292	0.00	29.838 
10:25	69.1	69.1	69.1	56	52.7	2	5	315	0.00	29.838 
10:30	69.4	69.4	69.4	54	52.0	2	5	292	0.00	29.846 
10:35	69.8	69.8	69.8	53	51.9	1	4	270	0.00	29.846 
10:40	70.1	70.1	70.1	53	52.2	1	3	338	0.00	29.846 
10:45	70.4	70.4	70.4	52	51.9	1	4	292	0.00	29.847 
10:50	70.9	70.9	70.9	52	52.4	1	4	292	0.00	29.847 
10:55	71.5	71.5	71.5	52	52.9	1	4	270	0.00	29.847 
11:00	71.8	71.8	71.8	50	52.1	2	5	315	0.00	29.844 
11:05	71.6	71.6	71.6	50	52.0	2	5	292	0.00	29.844 
11:10	71.6	71.6	71.6	50	52.0	2	5	315	0.00	29.844 
11:15	71.8	71.8	71.8	51	52.7	2	4	315	0.00	29.846 
11:20	72.1	72.1	72.1	51	53.0	2	5	270	0.00	29.846 
11:25	72.7	72.7	72.7	51	53.5	1	4	270	0.00	29.846 
11:30	72.8	72.8	72.8	48	52.0	3	6	292	0.00	29.849 
11:35	72.7	72.7	72.7	50	53.0	1	4	292	0.00	29.849 
11:40	72.8	72.8	72.8	49	52.5	2	5	292	0.00	29.849 
11:45	73.2	73.2	73.2	50	53.4	2	5	292	0.00	29.858 
11:50	73.5	73.5	73.5	49	53.2	1	5	292	0.00	29.858 
11:55	73.3	73.3	73.3	50	53.5	2	5	292	0.00	29.858 
12:00	73.5	73.5	73.5	50	53.7	1	3	292	0.00	29.853 
12:05	73.9	73.9	73.9	49	53.5	1	6	292	0.00	29.853 
12:10	74.0	74.0	74.0	49	53.6	2	5	292	0.00	29.853 
12:15	74.0	74.0	74.0	48	53.0	1	5	315	0.00	29.852 
12:20	74.0	74.0	74.0	50	54.2	1	3	315	0.00	29.852 
12:25	74.7	74.7	74.7	50	54.8	0	3	315	0.00	29.852 
12:30	75.4	75.4	77.8	47	53.7	1	5	338	0.00	29.847 
12:35	75.4	75.4	77.8	46	53.2	2	5	270	0.00	29.847 
12:40	75.3	75.3	77.7	48	54.2	1	4	292	0.00	29.847 
12:45	75.6	75.6	77.9	49	55.1	1	4	292	0.00	29.843 
12:50	75.6	75.6	77.9	47	53.9	2	5	270	0.00	29.843 
12:55	75.4	75.4	77.8	48	54.3	2	4	292	0.00	29.843 
13:00	75.4	75.4	77.8	47	53.7	2	4	292	0.00	29.836 
13:05	75.6	75.6	77.9	48	54.5	1	5	292	0.00	29.836 
13:10	75.8	75.8	78.0	49	55.3	1	5	112	0.00	29.836 
13:15	76.1	76.1	78.1	51	56.6	2	5	270	0.00	29.836 
13:20	76.7	76.7	78.4	48	55.5	1	5	270	0.00	29.836 
13:25	76.7	76.7	78.4	49	56.1	1	5	270	0.00	29.836 
13:30	77.0	77.0	78.5	47	55.2	1	3	292	0.00	29.832 
13:35	77.0	77.0	78.5	47	55.2	1	3	315	0.00	29.832 
13:40	77.4	77.4	78.7	46	55.0	1	3	270	0.00	29.832 
13:45	77.7	77.7	78.9	46	55.2	1	3	270	0.00	29.827 
13:50	77.6	77.6	78.8	45	54.6	1	3	0	0.00	29.827 
13:55	77.4	77.4	78.7	47	55.6	1	4	90	0.00	29.827 
14:00	77.9	77.9	79.1	48	56.6	2	5	90	0.00	29.827 
14:05	78.1	78.1	79.1	46	55.6	1	4	292	0.00	29.827 
14:10	77.7	77.7	78.9	46	55.2	1	5	292	0.00	29.827 
14:15	77.7	77.7	78.7	43	53.4	1	5	270	0.00	29.826 
14:20	78.3	78.3	79.0	42	53.3	1	5	45	0.00	29.826 
14:25	78.6	78.6	79.2	43	54.2	1	5	112	0.00	29.826 
14:30	77.6	77.6	78.7	44	53.9	0	3	112	0.00	29.828 
14:35	77.7	77.7	78.9	46	55.2	0	4	45	0.00	29.828 
14:40	77.9	77.9	78.9	44	54.2	1	5	292	0.00	29.828 
14:45	78.3	78.3	79.0	42	53.3	2	4	90	0.00	29.830 
14:50	78.6	78.6	79.2	43	54.2	2	5	90	0.00	29.830 
14:55	78.5	78.5	79.2	44	54.7	0	1	90	0.00	29.830 
15:00	77.7	77.7	78.7	42	52.8	0	1	90	0.00	29.842 
15:05	77.0	77.0	78.5	46	54.6	0	3	248	0.00	29.842 
15:10	76.7	76.7	78.4	48	55.5	1	3	315	0.00	29.842 
15:15	77.4	77.4	78.6	45	54.4	0	3	112	0.00	29.844 
15:20	78.3	78.3	78.9	41	52.6	0	2	0	0.00	29.844 
15:25	79.0	79.0	79.4	42	53.9	1	3	338	0.00	29.844 
15:30	79.6	79.6	79.8	42	54.5	1	5	90	0.00	29.843 
15:35	79.0	79.0	79.4	41	53.3	1	4	270	0.00	29.843 
15:40	78.1	78.1	78.9	42	53.1	1	3	270	0.00	29.843 
15:45	78.1	78.1	78.9	42	53.1	2	5	315	0.00	29.844 
15:50	77.9	77.9	78.8	43	53.6	0	2	338	0.00	29.844 
15:55	78.1	78.1	78.8	40	51.8	2	5	315	0.00	29.844 
16:00	78.3	78.3	78.9	41	52.6	1	4	292	0.00	29.842 
16:05	78.3	78.3	79.0	42	53.3	1	4	315	0.00	29.842 
16:10	78.3	78.3	78.9	40	52.0	1	4	315	0.00	29.842 
16:15	78.3	78.3	78.9	40	52.0	1	4	315	0.00	29.832 
16:20	78.3	78.3	78.9	40	52.0	1	4	270	0.00	29.832 
16:25	77.9	77.9	78.7	41	52.3	1	3	315	0.00	29.832 
16:30	77.6	77.6	78.7	44	53.9	0	2	315	0.00	29.829 
16:35	77.9	77.9	78.8	42	52.9	0	1	315	0.00	29.829 
16:40	78.5	78.5	79.1	42	53.5	0	1	315	0.00	29.829 
16:45	78.6	78.6	79.0	39	51.5	1	7	338	0.00	29.826 
16:50	78.6	78.6	79.1	41	52.9	0	3	112	0.00	29.826 
16:55	78.6	78.6	79.0	39	51.5	1	4	292	0.00	29.826 
17:00	78.6	78.6	79.2	42	53.6	1	6	135	0.00	29.830 
17:05	77.6	77.6	78.6	41	52.0	1	3	68	0.00	29.830 
17:10	76.5	76.5	78.2	44	52.9	0	1	338	0.00	29.830 
17:15	76.1	76.1	78.0	45	53.2	0	3	338	0.00	29.836 
17:20	76.1	76.1	78.0	46	53.8	0	1	292	0.00	29.836 
17:25	76.1	76.1	78.0	44	52.6	0	1	270	0.00	29.836 
17:30	76.1	76.1	78.0	44	52.6	0	2	270	0.00	29.838 
17:35	76.0	76.0	78.0	45	53.1	0	1	158	0.00	29.838 
17:40	76.1	76.1	78.0	46	53.8	1	3	292	0.00	29.838 
17:45	76.7	76.7	78.3	45	53.7	0	3	112	0.00	29.835 
17:50	77.0	77.0	78.4	43	52.8	0	3	112	0.00	29.835 
17:55	77.2	77.2	78.5	43	52.9	1	5	112	0.00	29.835 
18:00	77.0	77.0	78.4	44	53.4	0	3	112	0.00	29.841 
18:05	77.0	77.0	78.3	42	52.1	0	2	112	0.00	29.841 
18:10	76.8	76.8	78.2	42	51.9	0	2	0	0.00	29.841 
18:15	76.8	76.8	78.1	39	49.9	1	2	0	0.00	29.847 
18:20	76.8	76.8	78.2	42	51.9	0	2	338	0.00	29.847 
18:25	76.7	76.7	78.2	42	51.9	0	3	338	0.00	29.847 
18:30	76.5	76.5	78.1	43	52.3	0	2	270	0.00	29.847 
18:35	76.3	76.3	78.0	42	51.5	0	3	270	0.00	29.847 
18:40	76.1	76.1	78.0	44	52.6	0	1	270	0.00	29.847 
18:45	75.8	75.8	77.9	44	52.3	0	2	270	0.00	29.846 
18:50	75.6	75.6	77.8	43	51.5	0	1	270	0.00	29.846 
18:55	75.4	75.4	77.7	44	52.0	0	1	270	0.00	29.846 
19:00	75.4	75.4	77.7	44	52.0	0	2	338	0.00	29.849 
19:05	75.4	75.4	77.7	45	52.6	0	1	338	0.00	29.849 
19:10	75.4	75.4	77.7	45	52.6	0	1	338	0.00	29.849 
19:15	75.3	75.3	77.7	46	53.1	0	2	338	0.00	29.847 
19:20	75.1	75.1	77.7	48	54.1	0	3	45	0.00	29.847 
19:25	74.9	74.9	74.9	48	53.9	0	2	45	0.00	29.847 
19:30	74.7	74.7	74.7	50	54.8	0	1	45	0.00	29.849 
19:35	74.2	74.2	74.2	50	54.3	0	2	45	0.00	29.849 
19:40	73.9	73.9	73.9	50	54.1	0	1	112	0.00	29.849 
19:45	73.5	73.5	73.5	50	53.7	0	0	---	0.00	29.852 
19:50	73.2	73.2	73.2	51	54.0	0	1	112	0.00	29.852 
19:55	72.8	72.8	72.8	51	53.6	0	1	112	0.00	29.852 
20:00	72.5	72.5	72.5	52	53.9	0	1	112	0.00	29.858 
20:05	72.1	72.1	72.1	52	53.5	0	0	---	0.00	29.858 
20:10	72.0	72.0	72.0	53	53.9	0	1	112	0.00	29.858 
20:15	71.6	71.6	71.6	54	54.1	0	1	112	0.00	29.864 
20:20	71.5	71.5	71.5	55	54.5	0	0	---	0.00	29.864 
20:25	71.3	71.3	71.3	55	54.3	0	1	112	0.00	29.864 
20:30	71.1	71.1	71.1	55	54.1	0	1	112	0.00	29.864 
20:35	70.9	70.9	70.9	56	54.4	0	0	---	0.00	29.864 
20:40	70.8	70.8	70.8	56	54.3	0	2	112	0.00	29.864 
20:45	70.4	70.4	70.4	56	53.9	0	1	112	0.00	29.863 
20:50	70.1	70.1	70.1	56	53.7	0	1	112	0.00	29.863 
20:55	69.9	69.9	69.9	56	53.5	0	1	112	0.00	29.863 
21:00	69.6	69.6	69.6	56	53.2	0	1	112	0.00	29.868 
21:05	69.4	69.4	69.4	56	53.0	0	3	112	0.00	29.868 
21:10	69.1	69.1	69.1	56	52.7	0	1	112	0.00	29.868 
21:15	68.9	68.9	68.9	56	52.5	0	2	112	0.00	29.871 
21:20	68.8	68.8	68.8	57	52.9	0	0	---	0.00	29.871 
21:25	68.6	68.6	68.6	57	52.7	0	0	---	0.00	29.871 
21:30	68.4	68.4	68.4	57	52.6	0	1	112	0.00	29.882 
21:35	68.1	68.1	68.1	58	52.8	0	1	112	0.00	29.882 
21:40	67.8	67.8	67.8	59	52.9	0	2	112	0.00	29.882 
21:45	67.6	67.6	67.6	59	52.8	0	1	112	0.00	29.883 
21:50	67.4	67.4	67.4	59	52.6	0	2	112	0.00	29.883 
21:55	67.3	67.3	67.3	59	52.5	0	4	135	0.00	29.883 
22:00	67.1	67.1	67.1	60	52.7	0	1	135	0.00	29.884 
22:05	66.9	66.9	66.9	60	52.6	0	0	---	0.00	29.884 
22:10	66.8	66.8	66.8	60	52.5	0	2	135	0.00	29.884 
22:15	66.4	66.4	66.4	60	52.1	0	1	135	0.00	29.889 
22:20	66.3	66.3	66.3	61	52.4	0	1	135	0.00	29.889 
22:25	66.0	66.0	66.0	61	52.2	0	1	135	0.00	29.889 
22:30	65.8	65.8	65.8	61	52.0	0	1	135	0.00	29.893 
22:35	65.6	65.6	65.6	62	52.2	0	0	---	0.00	29.893 
22:40	65.5	65.5	65.5	61	51.7	0	1	135	0.00	29.893 
22:45	65.3	65.3	65.3	61	51.5	0	0	---	0.00	29.896 
22:50	65.2	65.2	65.2	61	51.4	0	2	135	0.00	29.896 
22:55	65.0	65.0	65.0	62	51.7	0	1	135	0.00	29.896 
23:00	64.8	64.8	64.8	62	51.5	0	1	135	0.00	29.896 
23:05	64.8	64.8	64.8	63	51.9	0	1	135	0.00	29.896 
23:10	64.7	64.7	64.7	63	51.8	0	0	---	0.00	29.896 
23:15	64.7	64.7	64.7	63	51.8	0	0	---	0.00	29.895 
23:20	64.5	64.5	64.5	64	52.0	0	1	135	0.00	29.895 
23:25	64.5	64.5	64.5	64	52.0	0	0	---	0.00	29.895 
23:30	64.5	64.5	64.5	63	51.6	0	2	135	0.00	29.895 
23:35	64.5	64.5	64.5	63	51.6	0	2	135	0.00	29.895 
23:40	64.7	64.7	64.7	62	51.4	0	2	135	0.00	29.895 
23:45	64.8	64.8	64.8	62	51.5	0	1	135	0.00	29.895 
23:50	65.0	65.0	65.0	61	51.2	1	3	135	0.00	29.895 
23:55	65.2	65.2	65.2	60	51.0	1	3	112	0.00	29.895 

CoCoRaHS
IN-AL-39
A2 Web Hosting
Creative Commons License
GoDaddy
search engine by freefind advanced

loaded 2018-11-21 00:35:14 • last modified 2010-11-18 10:43:29
Privacy PolicyDisclaimer
• wx.awcolley.com is powered by PmWiki v.2002016 •
• all content (unless otherwise noted) © 2018 A W Colley